createdAt,value
2023-03-12T00:04:15.720Z,11.55
2023-03-12T00:09:18.419Z,10.90
2023-03-12T00:14:20.397Z,14.85
2023-03-12T00:19:23.332Z,12.02
2023-03-12T00:24:26.377Z,8.35
2023-03-12T00:29:28.006Z,10.00
2023-03-12T00:34:30.056Z,12.68
2023-03-12T00:39:32.291Z,12.77
2023-03-12T00:44:33.843Z,8.32
2023-03-12T00:49:35.313Z,11.10
2023-03-12T00:54:36.774Z,8.40
2023-03-12T00:59:40.464Z,11.10
2023-03-12T01:04:42.091Z,9.30
2023-03-12T01:09:43.571Z,9.77
2023-03-12T01:14:45.064Z,10.65
2023-03-12T01:19:46.537Z,6.95
2023-03-12T01:24:48.312Z,16.00
2023-03-12T01:29:50.025Z,9.88
2023-03-12T01:34:51.546Z,9.48
2023-03-12T01:39:53.015Z,6.43
2023-03-12T01:45:00.346Z,6.97
2023-03-12T01:50:03.375Z,9.50
2023-03-12T01:55:09.544Z,9.65
2023-03-12T02:00:21.429Z,8.57
2023-03-12T02:05:30.454Z,7.95
2023-03-12T02:10:31.935Z,6.32
2023-03-12T02:15:35.555Z,9.93
2023-03-12T02:20:45.628Z,7.45
2023-03-12T02:25:51.603Z,8.27
2023-03-12T02:30:58.554Z,8.13
2023-03-12T02:36:00.158Z,7.10
2023-03-12T02:41:14.163Z,5.90
2023-03-12T02:46:16.491Z,4.57
2023-03-12T02:51:18.013Z,8.35
2023-03-12T02:56:19.453Z,7.38
2023-03-12T03:01:21.655Z,5.22
2023-03-12T03:06:24.561Z,15.93
2023-03-12T03:11:26.237Z,5.90
2023-03-12T03:16:27.673Z,5.50
2023-03-12T03:21:29.359Z,7.85
2023-03-12T03:26:31.334Z,5.32
2023-03-12T03:31:32.951Z,6.78
2023-03-12T03:36:34.501Z,5.85
2023-03-12T03:41:36.034Z,6.28
2023-03-12T03:46:37.622Z,6.20
2023-03-12T03:51:41.978Z,8.60
2023-03-12T03:56:43.583Z,5.05
2023-03-12T04:01:45.041Z,7.38
2023-03-12T04:06:46.504Z,12.55
2023-03-12T04:11:48.038Z,5.75
2023-03-12T04:16:49.513Z,5.03
2023-03-12T04:21:50.935Z,7.68
2023-03-12T04:26:52.435Z,7.93
2023-03-12T04:31:53.892Z,8.68
2023-03-12T04:36:55.315Z,4.78
2023-03-12T04:41:56.783Z,5.25
2023-03-12T04:46:58.326Z,3.97
2023-03-12T04:51:59.717Z,6.28
2023-03-12T04:57:01.221Z,7.55
2023-03-12T05:02:02.945Z,9.00
2023-03-12T05:07:04.534Z,10.45
2023-03-12T05:12:06.412Z,4.50
2023-03-12T05:17:07.914Z,6.55
2023-03-12T05:22:09.333Z,12.32
2023-03-12T05:27:11.610Z,7.93
2023-03-12T05:32:13.019Z,5.45
2023-03-12T05:37:14.448Z,7.35
2023-03-12T05:42:16.759Z,14.43
2023-03-12T05:47:18.669Z,7.72
2023-03-12T05:52:20.124Z,9.25
2023-03-12T05:57:21.591Z,8.95
2023-03-12T06:02:23.100Z,6.47
2023-03-12T06:07:25.273Z,7.40
2023-03-12T06:12:26.782Z,9.05
2023-03-12T06:17:32.387Z,8.38
2023-03-12T06:22:33.963Z,11.13
2023-03-12T06:27:35.358Z,5.82
2023-03-12T06:32:39.513Z,6.88
2023-03-12T06:37:41.114Z,7.65
2023-03-12T06:42:42.537Z,6.80
2023-03-12T06:47:44.156Z,5.68
2023-03-12T06:52:45.651Z,7.25
2023-03-12T06:57:47.178Z,9.93
2023-03-12T07:02:48.613Z,9.95
2023-03-12T07:07:50.615Z,12.32
2023-03-12T07:12:52.078Z,9.10
2023-03-12T07:17:53.698Z,6.85
2023-03-12T07:22:55.272Z,8.60
2023-03-12T07:27:56.701Z,6.90
2023-03-12T07:32:58.174Z,11.00
2023-03-12T07:38:00.591Z,10.73
2023-03-12T07:43:06.767Z,7.40
2023-03-12T07:48:08.705Z,10.65
2023-03-12T07:53:10.131Z,9.48
2023-03-12T07:58:13.173Z,10.65
2023-03-12T08:03:15.257Z,11.20
2023-03-12T08:08:17.246Z,15.07
2023-03-12T08:13:19.145Z,13.27
2023-03-12T08:18:21.184Z,12.70
2023-03-12T08:23:24.185Z,11.60
2023-03-12T08:28:25.679Z,13.40
2023-03-12T08:33:27.490Z,16.02
2023-03-12T08:38:29.052Z,16.88
2023-03-12T08:43:31.875Z,13.98
2023-03-12T08:48:33.395Z,21.13
2023-03-12T08:53:36.564Z,17.02
2023-03-12T08:58:38.027Z,20.65
2023-03-12T09:03:41.360Z,18.58
2023-03-12T09:08:44.790Z,18.73
2023-03-12T09:14:11.546Z,10.80
2023-03-12T09:19:07.798Z,16.50
2023-03-12T09:24:11.198Z,19.13
2023-03-12T09:29:13.202Z,13.07
2023-03-12T09:34:14.699Z,17.90
2023-03-12T09:39:16.525Z,20.45
2023-03-12T09:44:45.082Z,17.50
2023-03-12T09:49:51.165Z,19.10
2023-03-12T09:55:15.077Z,22.00
2023-03-12T10:00:32.851Z,20.42
2023-03-12T10:06:01.544Z,18.50
2023-03-12T10:11:08.533Z,17.75
2023-03-12T10:21:48.979Z,20.15
2023-03-12T10:26:52.087Z,23.50
2023-03-12T10:32:07.789Z,26.63
2023-03-12T10:37:23.942Z,23.77
2023-03-12T10:42:27.777Z,17.02
2023-03-12T10:47:39.694Z,22.20
2023-03-12T10:52:41.839Z,22.80
2023-03-12T10:57:43.236Z,23.35
2023-03-12T11:02:45.972Z,22.05
2023-03-12T11:07:47.552Z,23.17
2023-03-12T11:13:03.737Z,19.00
2023-03-12T11:18:22.344Z,15.60
2023-03-12T11:23:30.384Z,4.53
2023-03-12T11:28:47.494Z,15.05
2023-03-12T11:33:51.279Z,23.20
2023-03-12T11:38:59.594Z,24.80
2023-03-12T11:44:25.948Z,17.35
2023-03-12T11:49:35.680Z,13.57
2023-03-12T11:55:20.789Z,10.27
2023-03-12T12:00:32.791Z,6.13
2023-03-12T12:05:53.372Z,16.25
2023-03-12T12:11:10.843Z,20.02
2023-03-12T12:16:40.390Z,10.85
2023-03-12T12:22:19.610Z,17.05
2023-03-12T12:27:26.681Z,10.38
2023-03-12T12:33:02.449Z,21.42
2023-03-12T12:38:49.411Z,16.23
2023-03-12T12:44:01.383Z,16.67
2023-03-12T12:49:46.319Z,16.80
2023-03-12T12:55:12.759Z,25.77
2023-03-12T13:00:37.888Z,21.03
2023-03-12T13:05:58.056Z,28.33
2023-03-12T13:11:17.189Z,18.77
2023-03-12T13:16:35.340Z,22.95
2023-03-12T13:22:14.455Z,28.02
2023-03-12T13:27:41.062Z,14.55
2023-03-12T13:33:12.240Z,24.85
2023-03-12T13:38:35.938Z,20.10
2023-03-12T13:43:41.503Z,19.75
2023-03-12T13:48:48.585Z,19.17
2023-03-12T13:53:58.478Z,20.02
2023-03-12T13:59:03.412Z,19.30
2023-03-12T14:04:13.695Z,11.70
2023-03-12T14:09:38.197Z,21.55
2023-03-12T14:15:11.461Z,6.88
2023-03-12T14:20:21.593Z,14.65
2023-03-12T14:25:35.931Z,25.17
2023-03-12T14:31:07.202Z,18.38
2023-03-12T14:36:16.885Z,22.00
2023-03-12T14:41:27.684Z,16.35
2023-03-12T14:46:31.508Z,26.30
2023-03-12T14:51:36.100Z,11.52
2023-03-12T14:56:38.143Z,22.90
2023-03-12T15:01:43.860Z,17.40
2023-03-12T15:06:56.509Z,10.40
2023-03-12T15:12:07.797Z,22.30
2023-03-12T15:17:19.431Z,27.20
2023-03-12T15:22:27.135Z,7.60
2023-03-12T15:27:33.734Z,20.20
2023-03-12T15:37:42.111Z,10.63
2023-03-12T15:42:49.343Z,26.02
2023-03-12T15:47:57.423Z,21.67
2023-03-12T15:53:26.563Z,19.42
2023-03-12T15:58:35.571Z,24.70
2023-03-12T16:03:40.842Z,18.98
2023-03-12T16:08:53.152Z,17.27
2023-03-12T16:14:24.774Z,23.85
2023-03-12T16:19:36.864Z,22.95
2023-03-12T16:24:43.611Z,9.57
2023-03-12T16:29:45.109Z,28.65
2023-03-12T16:34:48.817Z,21.80
2023-03-12T16:39:50.313Z,17.60
2023-03-12T16:44:51.957Z,27.58
2023-03-12T16:49:53.757Z,15.95
2023-03-12T16:54:56.775Z,17.52
2023-03-12T16:59:59.048Z,17.60
2023-03-12T17:05:01.030Z,13.15
2023-03-12T17:10:07.355Z,29.50
2023-03-12T17:15:18.635Z,23.48
2023-03-12T17:20:23.496Z,15.48
2023-03-12T17:25:30.965Z,27.27
2023-03-12T17:30:43.085Z,8.32
2023-03-12T17:35:55.759Z,21.65
2023-03-12T17:40:58.124Z,22.42
2023-03-12T17:46:08.354Z,22.63
2023-03-12T17:51:13.631Z,16.55
2023-03-12T17:56:18.615Z,20.30
2023-03-12T18:01:20.226Z,10.38
2023-03-12T18:06:23.399Z,29.60
2023-03-12T18:11:24.900Z,22.00
2023-03-12T18:16:26.680Z,40.70
2023-03-12T18:21:31.671Z,37.13
2023-03-12T18:26:36.867Z,20.50
2023-03-12T18:31:41.335Z,39.05
2023-03-12T18:36:46.270Z,34.88
2023-03-12T18:41:50.959Z,35.13
2023-03-12T18:46:54.869Z,35.10
2023-03-12T18:51:59.884Z,34.58
2023-03-12T18:57:05.704Z,41.78
2023-03-12T19:02:07.433Z,42.00
2023-03-12T19:07:15.550Z,38.30
2023-03-12T19:12:17.141Z,31.80
2023-03-12T19:17:18.807Z,31.48
2023-03-12T19:22:22.817Z,32.13
2023-03-12T19:27:31.481Z,27.23
2023-03-12T19:32:43.309Z,40.40
2023-03-12T19:37:49.101Z,39.35
2023-03-12T19:42:50.590Z,30.20
2023-03-12T19:47:55.270Z,33.92
2023-03-12T19:52:56.803Z,37.72
2023-03-12T19:57:58.691Z,28.63
2023-03-12T20:03:00.370Z,37.17
2023-03-12T20:08:02.417Z,29.30
2023-03-12T20:13:03.904Z,27.75
2023-03-12T20:18:08.280Z,24.77
2023-03-12T20:23:09.916Z,33.00
2023-03-12T20:28:12.606Z,32.85
2023-03-12T20:33:15.620Z,29.70
2023-03-12T20:38:18.595Z,27.75
2023-03-12T20:43:20.852Z,28.92
2023-03-12T20:48:24.014Z,22.25
2023-03-12T20:53:27.145Z,30.05
2023-03-12T20:58:36.575Z,24.13
2023-03-12T21:03:39.081Z,29.65
2023-03-12T21:08:40.873Z,27.55
2023-03-12T21:13:42.584Z,28.33
2023-03-12T21:18:44.242Z,34.38
2023-03-12T21:23:45.959Z,28.98
2023-03-12T21:28:48.411Z,29.48
2023-03-12T21:33:50.052Z,26.50
2023-03-12T21:38:54.041Z,23.92
2023-03-12T21:43:55.848Z,28.77
2023-03-12T21:49:00.681Z,39.25
2023-03-12T21:54:02.222Z,32.42
2023-03-12T21:59:05.544Z,21.98
2023-03-12T22:04:07.228Z,20.40
2023-03-12T22:09:09.961Z,30.48
2023-03-12T22:14:15.970Z,29.15
2023-03-12T22:19:22.121Z,35.23
2023-03-12T22:24:30.337Z,32.00
2023-03-12T22:29:35.316Z,31.20
2023-03-12T22:34:38.921Z,30.52
2023-03-12T22:39:43.684Z,26.83
2023-03-12T22:44:45.467Z,33.40
2023-03-12T22:49:49.033Z,19.60
2023-03-12T22:54:50.736Z,25.05
2023-03-12T22:59:55.114Z,28.30
2023-03-12T23:04:59.123Z,25.05
2023-03-12T23:10:03.412Z,27.73
2023-03-12T23:15:06.240Z,20.17
2023-03-12T23:20:09.586Z,26.60
2023-03-12T23:25:12.544Z,26.48
2023-03-12T23:30:15.895Z,31.65
2023-03-12T23:35:17.575Z,23.58
2023-03-12T23:40:20.899Z,27.77
2023-03-12T23:45:25.340Z,30.27
2023-03-12T23:50:27.083Z,23.45
2023-03-12T23:55:29.915Z,24.70
